Accueil
METAR-TAF:

METAR-TAF

Aéroports :

Aéroport international d'Ivato

Tananarive, Madagascar

latitude: 18-48S, longitude: 047-29E, altitude: 1279 m

Observation

Le bulletin a été fait il y a 28 minutes, à 11:30 UTC
Vent 10 kt de est
Température 25°C
Humidité 61%
Pression 1018 hPa
Visibilité 10 km ou plus
Nuages fragmentés à une hauteur de 2000 ft

METAR: FMMI 231130Z 10010KT 9999 BKN020 25/17 Q1018 NOSIG

Heure: 14:58 (11:58 UTC)

Prévision

Le bulletin a été fait il y a 58 minutes, à 11:00 UTC
Prévision valable du 23 à 12 UTC au 24 à 18 UTC
Vent 10 kt de est/sud-est
Visibilité 10 km ou plus
Nuages épars à une hauteur de 1700 ft
Nuages épars à une hauteur de 2300 ft

TAF: FMMI 231100Z 2312/2418 12010KT 9999 SCT017 SCT023

Observations et prévisions météorologiques de plus de 4000 aéroports (messages METAR et TAF).

Les stations disponibles sont représentées par des disques jaunes et rouges sur la carte.

Passer la souris dessus pour voir le nom de la station.

Cliquer dessus pour voir les observations et prévisions météorologiques.

Pour changer de carte: cliquez sur les boutons verts avec une croix noire pour zoomer, sur le bouton vert avec un tiret pour effectuer un zoom arrière, ou sur les flèches vertes pour les cartes adjacentes.


METAR-TAF: